Time;durP1;ratioP1;P1;durP2;ratioP2;P2;SDS_P1;SDS_P2;PMS_P1;PMS_P2;Temp;Humidity;BMP_temperature;BMP_pressure;BME280_temperature;BME280_humidity;BME280_pressure;Samples;Min_cycle;Max_cycle;Signal;HPM_P1;HPM_P2
2023/05/12 00:01:13;;;;;;;5.17;4.67;;;;;;;11.23;100.00;147909.13;5089749;28;20641;-49
2023/05/12 00:03:40;;;;;;;5.83;4.97;;;;;;;11.23;100.00;147909.13;5089732;28;20629;-50
2023/05/12 00:06:08;;;;;;;6.57;4.80;;;;;;;11.06;100.00;147867.59;5089587;28;20587;-48
2023/05/12 00:08:35;;;;;;;5.50;4.83;;;;;;;11.18;100.00;147896.53;5089749;28;20698;-48
2023/05/12 00:11:02;;;;;;;4.73;4.43;;;;;;;11.19;100.00;147899.06;5089661;28;20597;-48
2023/05/12 00:13:29;;;;;;;5.77;5.17;;;;;;;11.18;100.00;147896.53;5089340;28;20273;-50
2023/05/12 00:15:57;;;;;;;5.33;4.63;;;;;;;11.25;100.00;147914.19;5089379;28;20210;-50
2023/05/12 00:18:27;;;;;;;6.20;5.63;;;;;;;11.17;100.00;147895.28;5089479;28;20636;-51
2023/05/12 00:20:54;;;;;;;5.67;5.20;;;;;;;11.19;100.00;147899.06;5086842;28;20649;-48
2023/05/12 00:23:22;;;;;;;5.40;4.80;;;;;;;11.21;100.00;147905.34;5089601;28;20227;-48
2023/05/12 00:25:49;;;;;;;6.63;6.03;;;;;;;11.12;100.00;147882.72;5089130;28;20245;-51
2023/05/12 00:28:16;;;;;;;5.23;4.73;;;;;;;11.12;100.00;147882.72;5089267;28;20678;-51
2023/05/12 00:30:43;;;;;;;6.00;5.13;;;;;;;11.18;100.00;147896.53;5089090;28;20193;-48
2023/05/12 00:33:10;;;;;;;8.63;5.47;;;;;;;11.10;100.00;147877.69;5088924;28;20194;-49
2023/05/12 00:35:38;;;;;;;5.27;4.77;;;;;;;11.09;100.00;147875.16;5089175;28;20219;-46
2023/05/12 00:38:05;;;;;;;9.20;5.23;;;;;;;11.12;100.00;147881.47;5088951;28;20377;-47
2023/05/12 00:40:32;;;;;;;8.33;5.20;;;;;;;11.08;100.00;147872.63;5086370;28;20233;-48
2023/05/12 00:42:59;;;;;;;6.13;4.43;;;;;;;11.09;100.00;147875.16;5088781;28;20321;-52
2023/05/12 00:45:28;;;;;;;7.10;5.10;;;;;;;11.04;100.00;147861.34;5088961;28;20195;-48
2023/05/12 00:47:55;;;;;;;5.10;4.70;;;;;;;11.12;100.00;147882.72;5086471;28;20199;-48
2023/05/12 00:50:22;;;;;;;6.33;5.13;;;;;;;11.10;100.00;147877.69;5088742;28;20252;-49
2023/05/12 00:52:50;;;;;;;7.10;6.00;;;;;;;11.08;100.00;147872.63;5088702;28;20195;-49
2023/05/12 00:55:18;;;;;;;6.60;6.00;;;;;;;10.95;100.00;147839.94;5088789;28;20191;-50
2023/05/12 00:57:45;;;;;;;5.73;5.23;;;;;;;10.89;100.00;147826.13;5088852;28;20195;-48
2023/05/12 01:00:13;;;;;;;10.13;7.03;;;;;;;10.87;100.00;147821.06;5085953;28;20565;-49
2023/05/12 01:02:40;;;;;;;8.53;6.90;;;;;;;10.85;100.00;147814.78;5088757;28;20207;-47
2023/05/12 01:05:08;;;;;;;11.70;7.07;;;;;;;10.77;100.00;147795.94;5088706;28;20288;-51
2023/05/12 01:07:36;;;;;;;12.00;6.20;;;;;;;10.79;100.00;147799.72;5088948;28;20923;-51
2023/05/12 01:10:16;;;;;;;8.73;7.53;;;;;;;10.76;100.00;147793.41;5088789;28;20218;-51
2023/05/12 01:12:43;;;;;;;7.67;6.57;;;;;;;10.78;100.00;147798.44;5090798;28;20183;-56
2023/05/12 01:15:11;;;;;;;10.63;6.90;;;;;;;10.79;100.00;147800.97;5092661;28;20195;-48
2023/05/12 01:17:42;;;;;;;6.37;5.70;;;;;;;10.85;100.00;147816.03;5092966;28;20237;-51
2023/05/12 01:20:13;;;;;;;6.23;5.53;;;;;;;10.83;100.00;147809.78;5092792;28;20199;-52
2023/05/12 01:22:40;;;;;;;5.83;5.30;;;;;;;10.88;100.00;147822.34;5092756;28;20721;-47
2023/05/12 01:25:11;;;;;;;7.03;5.00;;;;;;;10.88;100.00;147823.59;5092498;28;20206;-48
2023/05/12 01:27:40;;;;;;;5.70;4.93;;;;;;;10.86;100.00;147817.28;5092550;28;20191;-48
2023/05/12 01:30:09;;;;;;;6.97;5.00;;;;;;;10.88;100.00;147823.59;5092489;28;20200;-49
2023/05/12 01:32:39;;;;;;;6.73;5.23;;;;;;;10.87;100.00;147821.06;5092358;28;20278;-47
2023/05/12 01:35:06;;;;;;;5.60;5.10;;;;;;;10.82;100.00;147807.28;5092296;28;20207;-49
2023/05/12 01:37:33;;;;;;;5.37;4.97;;;;;;;10.81;100.00;147806.00;5089705;28;20463;-48
2023/05/12 01:40:00;;;;;;;5.50;5.03;;;;;;;10.77;100.00;147795.94;5092087;28;20206;-48
2023/05/12 01:42:27;;;;;;;5.23;4.70;;;;;;;10.76;100.00;147793.41;5091978;28;20246;-49
2023/05/12 01:44:55;;;;;;;7.17;5.13;;;;;;;10.82;100.00;147807.28;5092333;28;20562;-48
2023/05/12 01:47:22;;;;;;;5.77;5.33;;;;;;;10.82;100.00;147808.53;5092022;28;20191;-48
2023/05/12 01:49:49;;;;;;;5.57;5.13;;;;;;;10.82;100.00;147808.53;5091742;28;20249;-50
2023/05/12 01:52:16;;;;;;;5.43;4.90;;;;;;;10.83;100.00;147809.78;5091961;28;20191;-53
2023/05/12 01:54:43;;;;;;;6.90;5.13;;;;;;;10.73;100.00;147785.84;5091863;28;20200;-49
2023/05/12 01:57:10;;;;;;;5.97;5.47;;;;;;;10.75;100.00;147789.63;5092128;28;20193;-51
2023/05/12 01:59:37;;;;;;;7.93;5.57;;;;;;;10.66;100.00;147767.00;5091945;28;20199;-51
2023/05/12 02:02:05;;;;;;;5.57;4.97;;;;;;;10.65;100.00;147765.75;5091739;28;20619;-50
2023/05/12 02:04:33;;;;;;;6.90;5.10;;;;;;;10.69;100.00;147775.81;5088927;28;20191;-49
2023/05/12 02:07:00;;;;;;;7.50;5.17;;;;;;;10.68;100.00;147772.03;5091462;28;20207;-51
2023/05/12 02:09:27;;;;;;;5.20;4.80;;;;;;;10.71;100.00;147779.59;5091594;28;20392;-51
2023/05/12 02:11:54;;;;;;;5.03;4.53;;;;;;;10.70;100.00;147777.09;5089005;28;20191;-50
2023/05/12 02:14:21;;;;;;;7.17;5.17;;;;;;;10.64;100.00;147763.22;5091536;28;20191;-48
2023/05/12 02:16:51;;;;;;;7.30;4.70;;;;;;;10.71;100.00;147779.59;5091278;28;20203;-48
2023/05/12 02:19:19;;;;;;;8.03;5.23;;;;;;;10.68;100.00;147772.03;5091406;28;20225;-49
2023/05/12 02:21:46;;;;;;;5.57;4.73;;;;;;;10.76;100.00;147793.41;5090699;28;20314;-49
2023/05/12 02:24:15;;;;;;;6.47;5.83;;;;;;;10.84;100.00;147813.53;5088886;28;20191;-48
2023/05/12 02:26:42;;;;;;;7.63;5.73;;;;;;;10.91;100.00;147829.91;5091318;28;20198;-50
2023/05/12 02:29:09;;;;;;;8.70;6.67;;;;;;;10.90;100.00;147828.63;5091246;28;20685;-50
2023/05/12 02:31:36;;;;;;;7.27;6.60;;;;;;;10.80;100.00;147803.50;5091336;28;20207;-52
2023/05/12 02:34:03;;;;;;;6.83;5.67;;;;;;;10.79;100.00;147800.97;5091107;28;20191;-49
2023/05/12 02:36:32;;;;;;;6.87;5.77;;;;;;;10.80;100.00;147803.50;5091131;28;20192;-49
2023/05/12 02:38:59;;;;;;;8.17;5.90;;;;;;;10.83;100.00;147809.78;5091085;28;20253;-50
2023/05/12 02:41:26;;;;;;;6.13;5.53;;;;;;;10.82;100.00;147807.28;5091181;28;20424;-49
2023/05/12 02:43:52;;;;;;;5.27;4.77;;;;;;;10.86;100.00;147818.56;5088440;28;20222;-48
2023/05/12 02:46:19;;;;;;;5.87;5.27;;;;;;;10.85;100.00;147816.03;5090904;28;20206;-47
2023/05/12 02:48:46;;;;;;;5.77;5.17;;;;;;;10.85;100.00;147816.03;5090497;28;20195;-48
2023/05/12 02:51:13;;;;;;;6.27;5.23;;;;;;;10.69;100.00;147774.56;5088078;28;20252;-47
2023/05/12 02:53:41;;;;;;;5.80;5.20;;;;;;;10.73;100.00;147785.84;5091208;28;20195;-47
2023/05/12 02:56:08;;;;;;;6.33;5.73;;;;;;;10.84;100.00;147813.53;5090760;28;20203;-48
2023/05/12 02:58:36;;;;;;;5.97;5.57;;;;;;;10.85;100.00;147816.03;5090850;28;20663;-48
2023/05/12 03:01:02;;;;;;;8.23;5.80;;;;;;;10.87;100.00;147821.06;5090657;28;20199;-49
2023/05/12 03:03:29;;;;;;;5.77;5.37;;;;;;;10.90;100.00;147828.63;5090569;28;20207;-49
2023/05/12 03:05:56;;;;;;;6.90;6.20;;;;;;;10.86;100.00;147818.56;5090504;28;20195;-50
2023/05/12 03:08:23;;;;;;;11.33;5.83;;;;;;;10.91;100.00;147829.91;5090760;28;20701;-47
2023/05/12 03:10:52;;;;;;;8.40;5.93;;;;;;;10.87;100.00;147819.81;5090447;28;20201;-48
2023/05/12 03:13:19;;;;;;;6.67;5.63;;;;;;;10.84;100.00;147813.53;5090384;28;20187;-51
2023/05/12 03:15:45;;;;;;;6.50;5.67;;;;;;;10.89;100.00;147826.13;5090291;28;20576;-51
2023/05/12 03:18:12;;;;;;;10.23;5.70;;;;;;;10.94;100.00;147837.44;5091082;28;20203;-49
2023/05/12 03:20:40;;;;;;;6.40;5.33;;;;;;;11.00;100.00;147852.53;5091556;28;20202;-49
2023/05/12 03:23:06;;;;;;;5.73;5.23;;;;;;;11.06;100.00;147866.38;5091671;28;20713;-51
2023/05/12 03:25:34;;;;;;;9.33;5.80;;;;;;;11.05;100.00;147865.13;5091489;28;20691;-51
2023/05/12 03:28:03;;;;;;;5.77;5.37;;;;;;;11.03;100.00;147860.09;5091334;28;20195;-51
2023/05/12 03:30:31;;;;;;;6.30;5.80;;;;;;;11.07;100.00;147868.84;5091310;28;20199;-48
2023/05/12 03:32:58;;;;;;;6.27;5.37;;;;;;;11.10;100.00;147876.41;5091568;28;20620;-49
2023/05/12 03:35:25;;;;;;;6.87;5.50;;;;;;;11.05;100.00;147865.13;5090959;28;20573;-48
2023/05/12 03:37:52;;;;;;;5.60;5.20;;;;;;;11.05;100.00;147863.88;5091527;28;20290;-52
2023/05/12 03:40:19;;;;;;;5.93;5.40;;;;;;;11.05;100.00;147863.88;5091232;28;20213;-48
2023/05/12 03:42:46;;;;;;;6.43;5.00;;;;;;;11.14;100.00;147887.75;5091145;28;20252;-49
2023/05/12 03:45:14;;;;;;;5.67;4.23;;;;;;;11.16;100.00;147891.53;5090552;28;20750;-52
2023/05/12 03:47:41;;;;;;;5.13;4.63;;;;;;;11.19;100.00;147899.06;5089356;28;20191;-49
2023/05/12 03:50:09;;;;;;;5.10;4.73;;;;;;;11.11;100.00;147880.19;5089874;28;20227;-50
2023/05/12 03:52:37;;;;;;;6.63;4.57;;;;;;;11.11;100.00;147878.94;5088891;28;20206;-52
2023/05/12 03:55:05;;;;;;;5.57;4.37;;;;;;;11.13;100.00;147883.97;5089842;28;20199;-49
2023/05/12 03:57:33;;;;;;;5.23;4.73;;;;;;;11.15;100.00;147890.28;5090073;28;20629;-51
2023/05/12 04:00:00;;;;;;;7.00;4.20;;;;;;;11.24;100.00;147911.66;5088041;28;20200;-52
2023/05/12 04:02:28;;;;;;;4.93;4.53;;;;;;;11.28;100.00;147921.72;5090519;28;20203;-51
2023/05/12 04:04:55;;;;;;;5.63;3.90;;;;;;;11.28;100.00;147923.00;5090914;28;20286;-49
2023/05/12 04:07:22;;;;;;;6.07;4.30;;;;;;;11.34;100.00;147935.56;5090767;28;20192;-48
2023/05/12 04:09:49;;;;;;;7.37;5.27;;;;;;;11.43;100.00;147958.19;5090699;28;20195;-49
2023/05/12 04:12:15;;;;;;;6.67;5.27;;;;;;;11.57;100.00;147994.69;5087002;28;20223;-52
2023/05/12 04:14:42;;;;;;;13.27;5.40;;;;;;;11.52;100.00;147982.09;5090292;28;20211;-49
2023/05/12 04:17:09;;;;;;;6.07;4.80;;;;;;;11.52;100.00;147982.09;5090421;28;20317;-53
2023/05/12 04:19:37;;;;;;;5.13;4.30;;;;;;;11.60;100.00;148002.25;5090301;28;20771;-47
2023/05/12 04:22:05;;;;;;;5.80;4.30;;;;;;;11.57;100.00;147994.69;5090000;28;20227;-52
2023/05/12 04:24:32;;;;;;;4.63;4.23;;;;;;;11.57;100.00;147994.69;5088585;28;20234;-48
2023/05/12 04:26:59;;;;;;;5.17;4.77;;;;;;;11.61;100.00;148004.78;5089167;28;20241;-48
2023/05/12 04:29:26;;;;;;;5.03;4.47;;;;;;;11.57;100.00;147994.69;5090230;28;20276;-52
2023/05/12 04:31:55;;;;;;;7.63;4.27;;;;;;;11.63;100.00;148009.78;5089746;28;20219;-48
2023/05/12 04:34:22;;;;;;;4.20;3.80;;;;;;;11.72;100.00;148031.19;5090082;28;20215;-48
2023/05/12 04:36:50;;;;;;;5.37;4.43;;;;;;;11.83;100.00;148058.94;5089910;28;20686;-48
2023/05/12 04:39:17;;;;;;;6.07;4.53;;;;;;;11.93;100.00;148082.84;5089999;28;20222;-48
2023/05/12 04:41:44;;;;;;;6.87;6.07;;;;;;;12.04;100.00;148110.53;5089483;28;20230;-48
2023/05/12 04:44:11;;;;;;;6.23;5.63;;;;;;;12.10;100.00;148124.38;5089584;28;20227;-52
2023/05/12 04:46:38;;;;;;;6.97;5.30;;;;;;;12.14;100.00;148134.44;5088576;28;20563;-49
2023/05/12 04:49:05;;;;;;;7.30;6.23;;;;;;;12.19;100.00;148148.28;5089297;28;20196;-52
2023/05/12 04:51:32;;;;;;;7.03;6.10;;;;;;;12.30;100.00;148175.97;5090869;28;20207;-47
2023/05/12 04:54:01;;;;;;;6.27;5.67;;;;;;;12.44;100.00;148209.97;5090160;28;20213;-47
2023/05/12 04:56:28;;;;;;;5.83;4.90;;;;;;;12.44;100.00;148208.72;5090451;28;20203;-53
2023/05/12 04:58:55;;;;;;;12.33;6.23;;;;;;;12.45;100.00;148211.25;5090282;28;20217;-48
2023/05/12 05:01:22;;;;;;;6.03;5.20;;;;;;;12.55;100.00;148236.41;5090222;28;20234;-52
2023/05/12 05:03:49;;;;;;;9.53;6.20;;;;;;;12.54;100.00;148233.91;5090345;28;20240;-51
2023/05/12 05:06:15;;;;;;;9.90;6.40;;;;;;;12.50;100.00;148225.13;5090198;28;20281;-52
2023/05/12 05:08:42;;;;;;;11.97;6.67;;;;;;;12.52;100.00;148228.91;5090272;28;20195;-52
2023/05/12 05:11:11;;;;;;;7.97;5.07;;;;;;;12.54;100.00;148233.91;5090050;28;20199;-51
2023/05/12 05:13:37;;;;;;;5.73;5.03;;;;;;;12.50;100.00;148223.84;5090194;28;20595;-52
2023/05/12 05:16:05;;;;;;;6.67;4.80;;;;;;;12.47;100.00;148216.28;5090028;28;20206;-52
2023/05/12 05:18:32;;;;;;;5.33;4.87;;;;;;;12.58;100.00;148244.00;5080615;28;20310;-52
2023/05/12 05:20:59;;;;;;;5.40;4.90;;;;;;;12.48;100.00;148220.06;5069224;28;20220;-53
2023/05/12 05:23:26;;;;;;;6.60;4.50;;;;;;;12.47;100.00;148217.53;5069524;28;20227;-47
2023/05/12 05:25:53;;;;;;;6.80;4.50;;;;;;;12.37;100.00;148192.38;5074928;28;20861;-51
2023/05/12 05:28:21;;;;;;;5.83;5.10;;;;;;;12.24;100.00;148160.88;5090184;28;20218;-49
2023/05/12 05:30:48;;;;;;;5.30;4.83;;;;;;;12.27;100.00;148167.19;5089976;28;20274;-48
2023/05/12 05:33:15;;;;;;;9.10;5.17;;;;;;;12.26;100.00;148165.94;5089900;28;20282;-47
2023/05/12 05:35:42;;;;;;;6.60;5.07;;;;;;;12.13;100.00;148133.19;5089936;28;20206;-48
2023/05/12 05:38:09;;;;;;;7.93;6.10;;;;;;;12.16;100.00;148140.75;5090023;28;20195;-49
2023/05/12 05:40:36;;;;;;;5.73;5.23;;;;;;;12.42;100.00;148203.69;5089567;28;20206;-48
2023/05/12 05:43:03;;;;;;;7.97;5.63;;;;;;;12.73;100.00;148281.78;5089612;28;20195;-48
2023/05/12 05:45:31;;;;;;;8.63;5.50;;;;;;;12.97;99.98;148342.25;5089669;28;20278;-47
2023/05/12 05:48:05;;;;;;;7.87;5.60;;;;;;;13.13;99.70;148380.03;5089668;28;20203;-50
2023/05/12 05:50:33;;;;;;;7.33;5.47;;;;;;;13.43;97.13;148455.72;5088600;28;20227;-51
2023/05/12 05:53:04;;;;;;;12.23;5.27;;;;;;;13.74;94.81;148532.56;5082664;28;20208;-49
2023/05/12 05:55:32;;;;;;;5.10;4.57;;;;;;;13.93;92.03;148579.19;5069859;28;20195;-53
2023/05/12 05:57:58;;;;;;;4.23;3.87;;;;;;;14.62;89.89;148750.75;5071318;28;20210;-51
2023/05/12 06:00:25;;;;;;;4.07;3.80;;;;;;;15.57;85.74;148988.03;5072774;28;20223;-48
2023/05/12 06:02:54;;;;;;;6.47;4.20;;;;;;;16.43;80.56;149201.38;5072975;28;20200;-49
2023/05/12 06:05:21;;;;;;;5.03;3.80;;;;;;;16.70;77.73;149270.88;5073188;28;20578;-50
2023/05/12 06:07:48;;;;;;;3.97;3.63;;;;;;;17.18;76.05;149388.38;5072936;28;20227;-49
2023/05/12 06:10:14;;;;;;;4.60;3.37;;;;;;;17.57;73.95;149485.72;5072734;28;20196;-50
2023/05/12 06:12:42;;;;;;;7.97;4.00;;;;;;;17.86;72.22;149557.81;5072733;28;20668;-49
2023/05/12 06:15:10;;;;;;;3.90;3.60;;;;;;;17.92;72.11;149574.28;5073023;28;20551;-49
2023/05/12 06:17:36;;;;;;;5.00;3.33;;;;;;;18.08;70.85;149614.72;5072575;28;20200;-50
2023/05/12 06:20:06;;;;;;;3.88;3.58;;;;;;;18.19;69.92;149640.00;5072593;28;20199;-50
2023/05/12 06:22:34;;;;;;;3.80;3.47;;;;;;;17.58;71.64;149489.53;5072522;28;20200;-50
2023/05/12 06:25:00;;;;;;;4.77;3.37;;;;;;;17.38;73.10;149440.19;5072328;28;20281;-48
2023/05/12 06:27:27;;;;;;;3.93;3.63;;;;;;;17.61;72.80;149495.81;5072280;28;20196;-48
2023/05/12 06:29:54;;;;;;;4.75;3.65;;;;;;;17.73;71.24;149526.19;5072260;28;20200;-48
2023/05/12 06:32:21;;;;;;;5.23;3.60;;;;;;;17.35;72.59;149432.66;5072325;28;20199;-51
2023/05/12 06:34:48;;;;;;;6.07;5.20;;;;;;;17.55;72.82;149481.94;5072297;28;20281;-51
2023/05/12 06:37:17;;;;;;;5.97;3.97;;;;;;;17.48;73.30;149462.97;5072726;28;20800;-50
2023/05/12 06:39:43;;;;;;;3.90;3.60;;;;;;;17.72;72.18;149523.66;5072250;28;20200;-49
2023/05/12 06:42:11;;;;;;;4.10;3.80;;;;;;;18.76;68.89;149784.25;5071597;28;20279;-49
2023/05/12 06:44:38;;;;;;;7.67;4.20;;;;;;;19.05;67.61;149855.13;5089917;28;20313;-49
2023/05/12 06:47:05;;;;;;;4.35;4.05;;;;;;;19.19;66.62;149890.53;5091448;28;20754;-48
2023/05/12 06:49:34;;;;;;;4.60;3.97;;;;;;;19.05;65.93;149856.38;5091568;28;20239;-51
2023/05/12 06:52:01;;;;;;;4.90;3.35;;;;;;;18.71;67.71;149770.34;5092030;28;20583;-50
2023/05/12 06:54:29;;;;;;;4.95;4.40;;;;;;;19.26;67.11;149908.28;5091955;28;20226;-50
2023/05/12 06:56:56;;;;;;;5.97;3.70;;;;;;;18.94;67.18;149827.28;5092082;28;20343;-52
2023/05/12 06:59:23;;;;;;;4.80;3.47;;;;;;;18.48;68.49;149714.66;5092312;28;20722;-51
2023/05/12 07:01:50;;;;;;;4.55;4.00;;;;;;;18.58;68.31;149738.72;5090732;28;20306;-51
2023/05/12 07:04:17;;;;;;;3.10;2.90;;;;;;;18.65;67.01;149755.16;5090557;28;20227;-50
2023/05/12 07:06:44;;;;;;;7.45;4.00;;;;;;;18.88;67.01;149812.09;5091060;28;20191;-50
2023/05/12 07:09:11;;;;;;;6.10;3.50;;;;;;;18.36;66.61;149683.03;5091903;28;20655;-48
2023/05/12 07:11:39;;;;;;;6.72;3.53;;;;;;;17.48;70.19;149462.97;5092098;28;20203;-48
2023/05/12 07:14:06;;;;;;;3.90;3.60;;;;;;;17.51;70.95;149470.53;5091796;28;20195;-50
2023/05/12 07:16:33;;;;;;;6.65;3.30;;;;;;;17.50;71.01;149469.25;5091818;28;20199;-47
2023/05/12 07:19:00;;;;;;;4.63;3.50;;;;;;;17.40;70.70;149445.25;5091609;28;20225;-49
2023/05/12 07:21:28;;;;;;;3.73;3.40;;;;;;;17.21;71.63;149397.25;5092090;28;20206;-51
2023/05/12 07:23:55;;;;;;;5.10;3.30;;;;;;;17.08;72.25;149364.38;5091812;28;20215;-50
2023/05/12 07:26:23;;;;;;;4.33;3.07;;;;;;;16.74;71.07;149278.47;5091934;28;20199;-51
2023/05/12 07:28:51;;;;;;;3.97;3.57;;;;;;;16.92;71.52;149325.25;5084856;28;20684;-50
2023/05/12 07:31:18;;;;;;;3.87;2.93;;;;;;;17.03;72.13;149351.78;5075934;28;20295;-49
2023/05/12 07:33:45;;;;;;;4.00;3.33;;;;;;;16.98;72.54;149339.13;5071099;28;20223;-50
2023/05/12 07:36:12;;;;;;;6.33;3.30;;;;;;;17.12;72.42;149373.25;5070893;28;20213;-48
2023/05/12 07:38:39;;;;;;;3.60;3.30;;;;;;;17.45;68.42;149456.66;5071131;28;20208;-50
2023/05/12 07:41:06;;;;;;;5.88;3.55;;;;;;;17.87;67.73;149560.34;5071048;28;20282;-49
2023/05/12 07:43:33;;;;;;;3.95;3.55;;;;;;;18.21;64.98;149645.06;5070864;28;20195;-47
2023/05/12 07:46:02;;;;;;;6.45;2.78;;;;;;;18.63;63.41;149750.09;5075767;28;20195;-50
2023/05/12 07:48:29;;;;;;;6.50;3.10;;;;;;;18.98;62.06;149838.66;5091302;28;20231;-49
2023/05/12 07:50:56;;;;;;;4.32;3.47;;;;;;;18.99;61.75;149841.19;5090502;28;20223;-48
2023/05/12 07:53:23;;;;;;;3.90;3.00;;;;;;;18.75;63.28;149781.72;5090864;28;20199;-47
2023/05/12 07:55:50;;;;;;;3.35;3.05;;;;;;;18.49;63.87;149717.19;5091183;28;20195;-51
2023/05/12 07:58:17;;;;;;;3.58;3.03;;;;;;;18.44;63.09;149703.25;5090909;28;20197;-50
2023/05/12 08:00:44;;;;;;;7.65;3.85;;;;;;;18.03;64.92;149600.81;5092149;28;20191;-49
2023/05/12 08:03:15;;;;;;;2.70;2.50;;;;;;;17.83;63.23;149551.53;5091208;28;20192;-52
2023/05/12 08:05:42;;;;;;;3.67;2.97;;;;;;;17.67;63.93;149511.06;5090912;28;20223;-52
2023/05/12 08:08:14;;;;;;;3.93;3.33;;;;;;;17.33;65.31;149426.31;5090743;28;20213;-55
2023/05/12 08:10:41;;;;;;;4.13;3.47;;;;;;;16.97;68.30;149336.59;5090820;28;20203;-49
2023/05/12 08:13:08;;;;;;;4.83;3.40;;;;;;;16.92;68.54;149323.97;5090805;28;20201;-49
2023/05/12 08:15:35;;;;;;;3.77;3.37;;;;;;;16.79;69.62;149291.13;5090723;28;20593;-50
2023/05/12 08:18:03;;;;;;;5.53;3.80;;;;;;;17.15;69.25;149382.09;5090563;28;20203;-50
2023/05/12 08:20:31;;;;;;;4.53;3.77;;;;;;;17.71;67.60;149522.44;5090542;28;20241;-48
2023/05/12 08:22:58;;;;;;;7.45;4.38;;;;;;;18.77;64.79;149785.50;5090868;28;20226;-51
2023/05/12 08:25:26;;;;;;;4.38;3.63;;;;;;;19.66;61.00;150008.28;5090511;28;20218;-49
2023/05/12 08:27:53;;;;;;;5.78;3.63;;;;;;;20.14;58.51;150127.31;5090619;28;20203;-51
2023/05/12 08:30:20;;;;;;;4.50;3.28;;;;;;;20.52;57.74;150222.38;5090432;28;20268;-51
2023/05/12 08:32:47;;;;;;;6.80;3.00;;;;;;;21.11;56.37;150369.28;5090166;28;20201;-51
2023/05/12 08:35:14;;;;;;;4.50;3.05;;;;;;;20.99;54.82;150341.41;5090315;28;20239;-50
2023/05/12 08:37:43;;;;;;;3.42;2.97;;;;;;;20.41;55.23;150195.78;5090462;28;20192;-48
2023/05/12 08:40:16;;;;;;;3.75;2.83;;;;;;;20.31;55.95;150171.63;5090257;28;20240;-49
2023/05/12 08:42:44;;;;;;;5.05;3.03;;;;;;;20.63;55.01;150250.25;5090244;28;20191;-49
2023/05/12 08:45:12;;;;;;;4.95;3.30;;;;;;;20.58;55.07;150238.81;5089982;28;20230;-48
2023/05/12 08:47:40;;;;;;;4.68;3.35;;;;;;;20.71;55.71;150269.22;5091009;28;20231;-52
2023/05/12 08:50:09;;;;;;;7.55;3.65;;;;;;;21.06;54.83;150357.91;5087901;28;20285;-52
2023/05/12 08:52:36;;;;;;;6.65;3.00;;;;;;;21.29;54.37;150415.00;5088437;28;20756;-52
2023/05/12 08:55:06;;;;;;;5.72;3.22;;;;;;;21.07;54.33;150360.47;5089590;28;20195;-52
2023/05/12 08:57:33;;;;;;;3.63;3.35;;;;;;;20.63;54.91;150250.25;5089309;28;20199;-51
2023/05/12 09:00:04;;;;;;;3.42;3.20;;;;;;;19.79;56.32;150039.94;5090050;28;20226;-48
2023/05/12 09:02:32;;;;;;;3.30;2.90;;;;;;;19.11;57.57;149870.28;5090025;28;20203;-48
2023/05/12 09:04:58;;;;;;;3.95;3.20;;;;;;;19.00;58.77;149843.72;5088130;28;20211;-48
2023/05/12 09:07:26;;;;;;;3.53;3.20;;;;;;;18.74;58.91;149777.91;5090019;28;20213;-49
2023/05/12 09:09:57;;;;;;;4.82;3.60;;;;;;;18.56;60.26;149733.59;5089765;28;20195;-52
2023/05/12 09:12:31;;;;;;;3.70;3.28;;;;;;;18.73;59.18;149776.69;5089712;28;20207;-49
2023/05/12 09:15:03;;;;;;;2.80;2.58;;;;;;;18.60;58.25;149743.78;5090028;28;20198;-48
2023/05/12 09:17:30;;;;;;;3.35;2.97;;;;;;;18.60;58.14;149743.78;5089761;28;20349;-48
2023/05/12 09:19:57;;;;;;;4.82;3.38;;;;;;;18.35;58.02;149681.75;5089754;28;20195;-49
2023/05/12 09:22:28;;;;;;;4.18;3.60;;;;;;;17.99;59.43;149591.97;5089716;28;20197;-49
2023/05/12 09:24:55;;;;;;;4.95;3.50;;;;;;;18.07;59.78;149610.91;5089618;28;20219;-50
2023/05/12 09:27:27;;;;;;;3.85;3.28;;;;;;;18.04;59.67;149604.63;5089848;28;20278;-51
2023/05/12 09:29:54;;;;;;;3.80;3.15;;;;;;;18.45;58.97;149705.78;5089714;28;20195;-50
2023/05/12 09:32:30;;;;;;;6.10;3.03;;;;;;;19.04;57.69;149852.59;5090956;28;20652;-51
2023/05/12 09:35:01;;;;;;;3.05;2.65;;;;;;;19.36;54.58;149933.56;5093680;28;20675;-51
2023/05/12 09:37:33;;;;;;;2.90;2.70;;;;;;;19.70;53.78;150017.16;5093849;28;20217;-51
2023/05/12 09:40:00;;;;;;;3.78;3.17;;;;;;;20.11;52.60;150120.97;5093704;28;20191;-52
2023/05/12 09:42:30;;;;;;;4.43;3.10;;;;;;;19.51;53.41;149971.63;5093752;28;20709;-51
2023/05/12 09:44:59;;;;;;;3.28;3.00;;;;;;;19.43;52.80;149951.28;5093939;28;20223;-52
2023/05/12 09:47:28;;;;;;;3.30;3.00;;;;;;;19.57;53.09;149985.50;5093503;28;20344;-50
2023/05/12 09:49:56;;;;;;;5.50;2.92;;;;;;;19.48;53.51;149964.00;5093187;28;20235;-52
2023/05/12 09:52:23;;;;;;;3.00;2.80;;;;;;;19.19;54.27;149891.78;5093302;28;20199;-52
2023/05/12 09:54:52;;;;;;;3.00;2.80;;;;;;;19.31;53.93;149920.91;5093555;28;20245;-53
2023/05/12 09:57:21;;;;;;;7.00;2.67;;;;;;;19.68;53.46;150013.38;5093371;28;20256;-50
2023/05/12 09:59:50;;;;;;;3.28;2.92;;;;;;;19.72;53.03;150022.25;5093338;28;20244;-50
2023/05/12 10:02:18;;;;;;;4.70;2.90;;;;;;;19.72;52.82;150022.25;5093220;28;20191;-47
2023/05/12 10:04:49;;;;;;;3.50;2.60;;;;;;;20.03;51.41;150100.72;5093049;28;20222;-49
2023/05/12 10:07:17;;;;;;;5.93;2.88;;;;;;;20.27;51.52;150161.53;5093086;28;20191;-47
2023/05/12 10:09:45;;;;;;;3.15;2.85;;;;;;;20.36;51.11;150181.81;5093009;28;20192;-48
2023/05/12 10:12:13;;;;;;;2.80;2.60;;;;;;;20.59;50.54;150241.34;5093016;28;20241;-49
2023/05/12 10:14:41;;;;;;;3.10;2.85;;;;;;;20.56;50.57;150232.47;5092570;28;20195;-48
2023/05/12 10:17:09;;;;;;;2.63;2.50;;;;;;;20.20;48.74;150143.75;5092383;28;20702;-51
2023/05/12 10:19:37;;;;;;;3.05;2.65;;;;;;;19.33;51.64;149924.69;5093275;28;20759;-50
2023/05/12 10:22:10;;;;;;;3.30;3.00;;;;;;;19.45;52.90;149955.09;5093011;28;20221;-49
2023/05/12 10:24:39;;;;;;;3.83;3.25;;;;;;;19.68;53.51;150012.09;5092873;28;20223;-47
2023/05/12 10:27:07;;;;;;;5.20;3.40;;;;;;;19.27;53.67;149909.53;5092564;28;20198;-49
2023/05/12 10:29:35;;;;;;;3.30;2.53;;;;;;;19.23;52.72;149901.94;5093023;28;20226;-52
2023/05/12 10:32:01;;;;;;;3.25;2.38;;;;;;;19.32;52.53;149923.44;5092799;28;20637;-53
2023/05/12 10:34:34;;;;;;;2.72;2.60;;;;;;;19.29;52.55;149914.59;5074664;28;20307;-49
2023/05/12 10:37:07;;;;;;;2.83;2.60;;;;;;;19.29;53.47;149915.88;5072306;28;20234;-51
2023/05/12 10:39:34;;;;;;;4.60;3.10;;;;;;;19.09;52.36;149865.22;5082337;28;20251;-48
2023/05/12 10:42:03;;;;;;;3.53;3.25;;;;;;;19.23;52.11;149900.66;5072600;28;20220;-47
2023/05/12 10:44:30;;;;;;;3.30;3.00;;;;;;;19.18;52.85;149888.03;5082606;28;20297;-49
2023/05/12 10:46:58;;;;;;;3.60;3.30;;;;;;;18.96;53.58;149833.56;5092408;28;20234;-47
2023/05/12 10:49:36;;;;;;;3.15;2.90;;;;;;;18.72;54.58;149772.88;5090999;28;20643;-51
2023/05/12 10:52:03;;;;;;;2.92;2.72;;;;;;;18.70;54.08;149767.81;5091796;28;20558;-48
2023/05/12 10:54:37;;;;;;;3.22;2.55;;;;;;;18.65;54.70;149755.16;5092381;28;20701;-52
2023/05/12 10:57:12;;;;;;;3.25;3.00;;;;;;;18.70;53.90;149769.09;5092353;28;20332;-49
2023/05/12 10:59:48;;;;;;;3.85;3.10;;;;;;;18.60;54.64;149742.53;5092427;28;20234;-51
2023/05/12 11:02:17;;;;;;;3.10;2.80;;;;;;;18.43;53.94;149700.72;5092189;28;20241;-49
2023/05/12 11:04:49;;;;;;;3.38;3.00;;;;;;;18.59;54.38;149740.00;5091838;28;20199;-48
2023/05/12 11:07:22;;;;;;;3.10;2.90;;;;;;;18.66;55.36;149758.94;5092034;28;20191;-51
2023/05/12 11:09:50;;;;;;;4.85;3.58;;;;;;;18.72;55.96;149772.88;5091879;28;20195;-52
2023/05/12 11:12:17;;;;;;;3.65;3.30;;;;;;;18.48;55.89;149714.66;5091929;28;20199;-54
2023/05/12 11:14:45;;;;;;;3.60;3.00;;;;;;;18.56;55.46;149732.34;5091926;28;20199;-49
2023/05/12 11:17:13;;;;;;;6.30;3.10;;;;;;;18.58;55.17;149738.72;5091809;28;20286;-49
2023/05/12 11:19:45;;;;;;;5.93;3.20;;;;;;;18.56;55.26;149732.34;5091939;28;20231;-51
2023/05/12 11:22:16;;;;;;;3.30;2.72;;;;;;;18.63;54.88;149751.34;5090749;28;20195;-50
2023/05/12 11:24:43;;;;;;;3.10;2.80;;;;;;;18.66;54.82;149758.94;5091279;28;20210;-51